Time;durP1;ratioP1;P1;durP2;ratioP2;P2;SDS_P1;SDS_P2;PMS_P1;PMS_P2;Temp;Humidity;BMP_temperature;BMP_pressure;BME280_temperature;BME280_humidity;BME280_pressure;Samples;Min_cycle;Max_cycle;Signal;HPM_P1;HPM_P2
2023/01/22 00:00:25;;;;;;;6.60;3.23;;;3.70;99.90;;;;;;4980425;29;20476;-45
2023/01/22 00:02:52;;;;;;;7.37;3.67;;;3.70;99.90;;;;;;4980391;29;20443;-46
2023/01/22 00:05:19;;;;;;;9.73;3.30;;;3.70;99.90;;;;;;4980303;29;20527;-45
2023/01/22 00:07:47;;;;;;;4.60;3.30;;;3.70;99.90;;;;;;4980793;29;20432;-48
2023/01/22 00:10:14;;;;;;;9.17;3.60;;;3.60;99.90;;;;;;4980591;28;20459;-47
2023/01/22 00:12:41;;;;;;;4.67;1.80;;;3.60;99.90;;;;;;4980167;29;20459;-47
2023/01/22 00:15:10;;;;;;;3.00;2.53;;;3.60;99.90;;;;;;4980309;29;20452;-42
2023/01/22 00:17:37;;;;;;;4.77;2.07;;;3.60;99.90;;;;;;4980434;29;20463;-44
2023/01/22 00:20:05;;;;;;;4.40;2.50;;;3.60;99.90;;;;;;4980475;29;20520;-47
2023/01/22 00:22:32;;;;;;;4.30;3.23;;;3.90;99.90;;;;;;4980435;29;20474;-47
2023/01/22 00:25:01;;;;;;;6.10;2.07;;;4.10;99.90;;;;;;4980436;29;20455;-44
2023/01/22 00:27:28;;;;;;;4.80;2.13;;;3.90;99.90;;;;;;4980347;29;20467;-43
2023/01/22 00:29:55;;;;;;;5.93;2.87;;;3.80;99.90;;;;;;4980148;29;20471;-42
2023/01/22 00:32:22;;;;;;;4.83;2.30;;;3.70;99.90;;;;;;4980073;29;20416;-44
2023/01/22 00:34:51;;;;;;;4.40;2.40;;;3.60;99.90;;;;;;4979384;28;20448;-46
2023/01/22 00:37:19;;;;;;;3.00;2.50;;;3.60;99.90;;;;;;4980006;29;20462;-46
2023/01/22 00:39:46;;;;;;;5.17;2.47;;;3.50;99.90;;;;;;4979920;29;20479;-39
2023/01/22 00:42:14;;;;;;;4.70;3.00;;;3.50;99.90;;;;;;4980197;29;20462;-44
2023/01/22 00:44:41;;;;;;;4.60;2.27;;;3.50;99.90;;;;;;4979923;29;20458;-41
2023/01/22 00:47:07;;;;;;;5.60;2.27;;;3.50;99.90;;;;;;4979504;29;20467;-41
2023/01/22 00:49:34;;;;;;;7.17;2.93;;;3.50;99.90;;;;;;4980142;29;20471;-47
2023/01/22 00:52:01;;;;;;;2.90;2.40;;;3.50;99.90;;;;;;4980114;29;20444;-47
2023/01/22 00:54:28;;;;;;;4.13;2.33;;;3.50;99.90;;;;;;4979706;29;20483;-42
2023/01/22 00:56:55;;;;;;;5.47;2.67;;;3.40;99.90;;;;;;4979822;29;20444;-42
2023/01/22 00:59:23;;;;;;;3.20;2.60;;;3.40;99.90;;;;;;4979923;29;20462;-46
2023/01/22 01:01:50;;;;;;;7.00;2.70;;;3.50;99.90;;;;;;4979842;29;20475;-43
2023/01/22 01:04:17;;;;;;;4.80;2.23;;;3.50;99.90;;;;;;4979206;29;20444;-42
2023/01/22 01:06:44;;;;;;;2.40;2.00;;;3.40;99.90;;;;;;4979409;29;20479;-41
2023/01/22 01:09:11;;;;;;;3.90;2.77;;;3.40;99.90;;;;;;4979896;29;20423;-42
2023/01/22 01:11:38;;;;;;;3.53;2.50;;;3.40;99.90;;;;;;4980361;28;20451;-42
2023/01/22 01:14:04;;;;;;;3.60;2.47;;;3.40;99.90;;;;;;4980073;28;20486;-42
2023/01/22 01:16:33;;;;;;;5.73;3.10;;;3.40;99.90;;;;;;4980035;29;20444;-42
2023/01/22 01:19:01;;;;;;;2.83;2.23;;;3.40;99.90;;;;;;4980345;29;20463;-42
2023/01/22 01:21:29;;;;;;;3.23;1.70;;;3.40;99.90;;;;;;4980690;28;20475;-48
2023/01/22 01:23:57;;;;;;;3.70;2.80;;;3.50;99.90;;;;;;4980479;29;20475;-43
2023/01/22 01:26:24;;;;;;;3.60;2.60;;;3.50;99.90;;;;;;4980210;28;20463;-48
2023/01/22 01:28:52;;;;;;;4.73;2.23;;;3.50;99.90;;;;;;4980369;29;20470;-43
2023/01/22 01:31:21;;;;;;;8.73;3.80;;;3.40;99.90;;;;;;4979216;28;20471;-43
2023/01/22 01:33:49;;;;;;;5.40;2.83;;;3.50;99.90;;;;;;4979387;29;20439;-43
2023/01/22 01:36:18;;;;;;;7.03;4.33;;;3.50;99.90;;;;;;4979157;28;20454;-41
2023/01/22 01:38:45;;;;;;;3.80;2.93;;;3.50;99.90;;;;;;4978836;29;20455;-44
2023/01/22 01:41:15;;;;;;;4.77;3.10;;;3.50;99.90;;;;;;4979304;29;20535;-43
2023/01/22 01:43:42;;;;;;;4.10;2.00;;;3.50;99.90;;;;;;4979317;29;20476;-44
2023/01/22 01:46:19;;;;;;;5.60;2.60;;;3.50;99.90;;;;;;4979310;28;20431;-45
2023/01/22 01:48:48;;;;;;;7.60;2.80;;;3.50;99.90;;;;;;4978655;28;20432;-45
2023/01/22 01:51:21;;;;;;;5.53;3.43;;;3.50;99.90;;;;;;4978565;29;20424;-43
2023/01/22 01:53:50;;;;;;;5.70;3.20;;;3.60;99.90;;;;;;4979055;29;20468;-47
2023/01/22 01:56:23;;;;;;;3.20;2.50;;;3.50;99.90;;;;;;4979025;29;20511;-41
2023/01/22 01:58:53;;;;;;;2.30;1.87;;;3.60;99.90;;;;;;4979078;29;20428;-46
2023/01/22 02:01:20;;;;;;;2.80;1.70;;;3.50;99.90;;;;;;4979083;29;20480;-44
2023/01/22 02:03:47;;;;;;;7.80;2.40;;;3.50;99.90;;;;;;4979081;29;20464;-41
2023/01/22 02:06:17;;;;;;;2.33;2.13;;;3.50;99.90;;;;;;4975404;29;20443;-45
2023/01/22 02:08:47;;;;;;;6.47;2.40;;;3.50;99.90;;;;;;4973951;29;20487;-44
2023/01/22 02:11:15;;;;;;;2.37;1.67;;;3.50;99.90;;;;;;4979033;29;20431;-44
2023/01/22 02:13:46;;;;;;;3.10;2.80;;;3.60;99.90;;;;;;4978834;29;20447;-45
2023/01/22 02:16:13;;;;;;;3.17;2.87;;;3.60;99.90;;;;;;4978733;29;20416;-42
2023/01/22 02:18:40;;;;;;;3.97;2.87;;;3.60;99.90;;;;;;4978979;29;20452;-44
2023/01/22 02:21:31;;;;;;;6.70;3.20;;;3.60;99.90;;;;;;4978988;29;20498;-46
2023/01/22 02:23:58;;;;;;;5.10;2.53;;;3.60;99.90;;;;;;4978939;29;20428;-42
2023/01/22 02:26:25;;;;;;;3.37;2.13;;;3.60;99.90;;;;;;4978855;29;20487;-48
2023/01/22 02:28:52;;;;;;;4.80;2.10;;;3.60;99.90;;;;;;4979076;28;20416;-42
2023/01/22 02:31:19;;;;;;;4.27;2.70;;;3.60;99.90;;;;;;4979039;29;20479;-47
2023/01/22 02:33:46;;;;;;;4.03;2.37;;;3.60;99.90;;;;;;4976864;28;20499;-45
2023/01/22 02:36:15;;;;;;;3.20;2.33;;;3.60;99.90;;;;;;4968425;29;20440;-44
2023/01/22 02:38:43;;;;;;;2.73;1.60;;;3.60;99.90;;;;;;4978464;28;20535;-45
2023/01/22 02:41:10;;;;;;;3.83;2.10;;;3.60;99.90;;;;;;4978286;29;20492;-42
2023/01/22 02:43:36;;;;;;;4.63;2.33;;;3.60;99.90;;;;;;4978254;29;20447;-44
2023/01/22 02:46:03;;;;;;;6.77;1.80;;;3.60;99.90;;;;;;4978410;28;20472;-47
2023/01/22 02:48:30;;;;;;;5.17;2.93;;;3.60;99.90;;;;;;4978397;29;20435;-48
2023/01/22 02:50:57;;;;;;;4.67;2.43;;;3.60;99.90;;;;;;4978560;29;20472;-44
2023/01/22 02:53:24;;;;;;;2.13;1.73;;;3.50;99.90;;;;;;4966855;29;20428;-46
2023/01/22 02:55:52;;;;;;;3.30;2.50;;;3.50;99.90;;;;;;4977792;29;20439;-44
2023/01/22 02:58:19;;;;;;;7.13;4.57;;;3.50;99.90;;;;;;4980476;28;20479;-42
2023/01/22 03:00:46;;;;;;;2.73;2.00;;;3.50;99.90;;;;;;4982159;29;20495;-47
2023/01/22 03:03:15;;;;;;;10.03;3.23;;;3.60;99.90;;;;;;4981767;29;20471;-44
2023/01/22 03:05:46;;;;;;;2.27;1.83;;;3.50;99.90;;;;;;4981891;29;20427;-49
2023/01/22 03:08:13;;;;;;;4.90;2.67;;;3.50;99.90;;;;;;4981666;29;20440;-45
2023/01/22 03:10:40;;;;;;;9.00;3.37;;;3.50;99.90;;;;;;4981526;29;20507;-45
2023/01/22 03:21:22;;;;;;;2.90;1.87;;;3.60;99.90;;;;;;4981305;29;20470;-45
2023/01/22 03:23:50;;;;;;;3.03;2.00;;;3.50;99.90;;;;;;4981015;29;20447;-43
2023/01/22 03:26:18;;;;;;;2.90;1.80;;;3.60;99.90;;;;;;4981581;29;20482;-42
2023/01/22 03:28:46;;;;;;;3.77;1.87;;;3.60;99.90;;;;;;4980980;29;20448;-44
2023/01/22 03:31:14;;;;;;;3.47;2.37;;;3.60;99.90;;;;;;4981385;29;20440;-43
2023/01/22 03:33:41;;;;;;;3.43;2.13;;;3.60;99.90;;;;;;4981713;29;20423;-46
2023/01/22 03:36:11;;;;;;;3.90;2.27;;;3.60;99.90;;;;;;4981775;29;20463;-43
2023/01/22 03:38:38;;;;;;;3.33;2.00;;;3.60;99.90;;;;;;4981805;29;20464;-48
2023/01/22 03:41:06;;;;;;;4.03;1.70;;;3.60;99.90;;;;;;4981362;29;20550;-43
2023/01/22 03:43:34;;;;;;;2.23;2.00;;;3.60;99.90;;;;;;4981392;29;20458;-44
2023/01/22 03:46:04;;;;;;;2.23;1.90;;;3.50;99.90;;;;;;4981437;29;20435;-46
2023/01/22 03:48:31;;;;;;;4.10;2.13;;;3.50;99.90;;;;;;4981470;28;20428;-44
2023/01/22 03:51:04;;;;;;;2.13;1.90;;;3.50;99.90;;;;;;4981531;29;20520;-45
2023/01/22 03:53:31;;;;;;;2.17;1.93;;;3.50;99.90;;;;;;4981653;29;20547;-43
2023/01/22 03:55:59;;;;;;;2.20;2.00;;;3.50;99.90;;;;;;4980989;29;20468;-48
2023/01/22 03:58:26;;;;;;;1.70;1.60;;;3.60;99.90;;;;;;4981344;29;20479;-43
2023/01/22 04:00:56;;;;;;;2.87;2.33;;;3.60;99.90;;;;;;4980854;29;20447;-44
2023/01/22 04:03:24;;;;;;;2.87;2.60;;;3.60;99.90;;;;;;4981347;29;20458;-45
2023/01/22 04:05:51;;;;;;;2.70;1.97;;;3.60;99.90;;;;;;4980982;29;20516;-47
2023/01/22 04:08:18;;;;;;;3.20;1.70;;;3.60;99.90;;;;;;4975865;28;20455;-47
2023/01/22 04:10:45;;;;;;;2.80;1.90;;;3.60;99.90;;;;;;4975682;29;20468;-44
2023/01/22 04:13:12;;;;;;;3.40;1.80;;;3.60;99.90;;;;;;4980765;29;20440;-47
2023/01/22 04:15:39;;;;;;;2.77;1.97;;;3.50;99.90;;;;;;4980798;29;20425;-47
2023/01/22 04:18:06;;;;;;;4.50;2.30;;;3.50;99.90;;;;;;4980685;29;20491;-44
2023/01/22 04:20:34;;;;;;;3.00;1.77;;;3.50;99.90;;;;;;4979947;29;20447;-44
2023/01/22 04:23:01;;;;;;;2.47;2.10;;;3.50;99.90;;;;;;4980048;29;20555;-45
2023/01/22 04:25:27;;;;;;;3.83;2.70;;;3.50;99.90;;;;;;4980330;29;20420;-50
2023/01/22 04:27:54;;;;;;;3.50;2.20;;;3.50;99.90;;;;;;4980476;29;20483;-42
2023/01/22 04:30:21;;;;;;;3.13;1.90;;;3.50;99.90;;;;;;4980297;29;20463;-45
2023/01/22 04:32:48;;;;;;;3.07;2.20;;;3.60;99.90;;;;;;4980326;29;20479;-43
2023/01/22 04:35:15;;;;;;;2.70;2.40;;;3.60;99.90;;;;;;4980099;29;20456;-45
2023/01/22 04:37:43;;;;;;;2.60;2.10;;;3.60;99.90;;;;;;4980224;29;20432;-43
2023/01/22 04:40:11;;;;;;;1.63;1.47;;;3.60;99.90;;;;;;4980179;29;20582;-49
2023/01/22 04:42:38;;;;;;;4.40;2.57;;;3.60;99.90;;;;;;4980719;29;20483;-48
2023/01/22 04:45:06;;;;;;;3.10;2.27;;;3.60;99.90;;;;;;4980496;29;20471;-49
2023/01/22 04:47:33;;;;;;;4.20;2.97;;;3.60;99.90;;;;;;4979932;29;20464;-47
2023/01/22 04:49:59;;;;;;;3.10;2.17;;;3.70;99.90;;;;;;4980086;29;20443;-46
2023/01/22 04:52:26;;;;;;;2.80;2.10;;;3.60;99.90;;;;;;4979725;29;20479;-48
2023/01/22 04:54:54;;;;;;;4.80;2.63;;;3.70;99.90;;;;;;4979676;29;20542;-44
2023/01/22 04:57:21;;;;;;;10.37;5.47;;;3.60;99.90;;;;;;4979534;29;20428;-40
2023/01/22 04:59:48;;;;;;;3.13;2.77;;;3.70;99.90;;;;;;4979523;29;20474;-46
2023/01/22 05:02:15;;;;;;;7.20;3.50;;;3.70;99.90;;;;;;4979258;28;20487;-41
2023/01/22 05:04:42;;;;;;;6.20;3.03;;;3.70;99.90;;;;;;4980006;29;20448;-43
2023/01/22 05:07:08;;;;;;;7.13;4.37;;;3.60;99.90;;;;;;4969989;29;20472;-44
2023/01/22 05:09:35;;;;;;;7.33;5.67;;;3.60;99.90;;;;;;4979775;29;20459;-48
2023/01/22 05:12:04;;;;;;;3.90;2.70;;;3.60;99.90;;;;;;4979902;29;20437;-45
2023/01/22 05:14:30;;;;;;;2.70;1.97;;;3.60;99.90;;;;;;4979563;29;20539;-46
2023/01/22 05:16:57;;;;;;;3.57;2.53;;;3.60;99.90;;;;;;4979778;28;20459;-44
2023/01/22 05:19:24;;;;;;;3.50;2.70;;;3.60;99.90;;;;;;4980346;28;20504;-48
2023/01/22 05:21:53;;;;;;;4.03;2.97;;;3.60;99.90;;;;;;4979694;28;20551;-45
2023/01/22 05:24:19;;;;;;;3.80;2.80;;;3.70;99.90;;;;;;4979629;29;20447;-45
2023/01/22 05:26:46;;;;;;;3.90;2.60;;;3.70;99.90;;;;;;4979337;29;20471;-44
2023/01/22 05:29:14;;;;;;;3.23;2.70;;;3.70;99.90;;;;;;4979732;29;20420;-46
2023/01/22 05:31:41;;;;;;;2.50;2.30;;;3.60;99.90;;;;;;4979701;29;20448;-48
2023/01/22 05:34:08;;;;;;;4.20;2.40;;;3.60;99.90;;;;;;4979610;29;20467;-45
2023/01/22 05:36:35;;;;;;;4.93;3.50;;;3.60;99.90;;;;;;4979692;29;20459;-43
2023/01/22 05:39:02;;;;;;;3.83;3.50;;;3.60;99.90;;;;;;4979149;29;20463;-46
2023/01/22 05:41:28;;;;;;;5.53;3.00;;;3.50;99.90;;;;;;4978836;29;20487;-44
2023/01/22 05:43:55;;;;;;;4.43;3.03;;;3.60;99.90;;;;;;4978794;29;20462;-47
2023/01/22 05:46:23;;;;;;;6.33;3.80;;;3.50;99.90;;;;;;4979817;29;20420;-45
2023/01/22 05:48:50;;;;;;;4.57;3.17;;;3.60;99.90;;;;;;4978756;29;20512;-43
2023/01/22 05:51:18;;;;;;;4.70;3.10;;;3.50;99.90;;;;;;4978888;29;20436;-48
2023/01/22 05:53:45;;;;;;;4.33;3.43;;;3.50;99.90;;;;;;4970964;29;20451;-47
2023/01/22 05:56:12;;;;;;;4.77;3.60;;;3.50;99.90;;;;;;4976673;29;20447;-45
2023/01/22 05:58:39;;;;;;;3.47;2.73;;;3.40;99.90;;;;;;4978693;29;20472;-46
2023/01/22 06:01:06;;;;;;;4.63;3.50;;;3.40;99.90;;;;;;4978719;29;20462;-47
2023/01/22 06:03:34;;;;;;;4.20;2.77;;;3.40;99.90;;;;;;4979131;29;20502;-46
2023/01/22 06:06:03;;;;;;;5.57;3.13;;;3.40;99.90;;;;;;4977010;29;20482;-45
2023/01/22 06:08:31;;;;;;;4.13;3.20;;;3.40;99.90;;;;;;4973421;29;20498;-47
2023/01/22 06:11:02;;;;;;;5.60;3.23;;;3.40;99.90;;;;;;4979086;29;20468;-41
2023/01/22 06:13:29;;;;;;;6.87;3.20;;;3.40;99.90;;;;;;4978418;28;20478;-43
2023/01/22 06:15:56;;;;;;;4.33;2.83;;;3.40;99.90;;;;;;4978198;29;20487;-45
2023/01/22 06:18:24;;;;;;;5.23;3.70;;;3.40;99.90;;;;;;4977738;29;20471;-42
2023/01/22 06:20:52;;;;;;;6.13;3.97;;;3.40;99.90;;;;;;4978337;29;20444;-41
2023/01/22 06:23:21;;;;;;;5.10;3.27;;;3.40;99.90;;;;;;4977913;29;20567;-41
2023/01/22 06:25:52;;;;;;;3.80;2.97;;;3.40;99.90;;;;;;4977899;29;20456;-44
2023/01/22 06:28:19;;;;;;;7.53;3.90;;;3.40;99.90;;;;;;4977642;29;20412;-42
2023/01/22 06:30:46;;;;;;;4.30;2.50;;;3.40;99.90;;;;;;4972204;29;20467;-42
2023/01/22 06:33:14;;;;;;;4.40;3.77;;;3.40;99.90;;;;;;4980861;28;20483;-43
2023/01/22 06:35:41;;;;;;;6.10;3.73;;;3.40;99.90;;;;;;4983356;28;20612;-46
2023/01/22 06:38:10;;;;;;;5.90;3.77;;;3.40;99.90;;;;;;4982792;29;20439;-41
2023/01/22 06:40:36;;;;;;;7.20;4.00;;;3.40;99.90;;;;;;4979169;29;20475;-43
2023/01/22 06:43:04;;;;;;;7.43;3.57;;;3.40;99.90;;;;;;4975607;29;20483;-44
2023/01/22 06:45:31;;;;;;;5.23;3.50;;;3.40;99.90;;;;;;4982664;29;20451;-45
2023/01/22 06:47:57;;;;;;;5.03;3.03;;;3.40;99.90;;;;;;4982554;29;20484;-45
2023/01/22 06:50:24;;;;;;;4.83;3.40;;;3.50;99.90;;;;;;4982469;28;20467;-44
2023/01/22 06:52:51;;;;;;;5.50;3.60;;;3.50;99.90;;;;;;4982313;29;20456;-42
2023/01/22 06:55:19;;;;;;;10.10;3.30;;;3.50;99.90;;;;;;4982204;29;20452;-48
2023/01/22 06:57:46;;;;;;;7.13;4.80;;;3.50;99.90;;;;;;4982295;29;20467;-45
2023/01/22 07:00:14;;;;;;;8.57;5.73;;;3.50;99.90;;;;;;4982430;29;20435;-42
2023/01/22 07:02:40;;;;;;;6.70;4.40;;;3.50;99.90;;;;;;4981641;29;20479;-45
2023/01/22 07:05:08;;;;;;;4.70;4.17;;;3.50;99.90;;;;;;4981966;29;20416;-47
2023/01/22 07:07:35;;;;;;;5.00;3.90;;;3.50;99.90;;;;;;4981986;29;20450;-42
2023/01/22 07:10:01;;;;;;;6.93;3.63;;;3.50;99.90;;;;;;4982165;29;20451;-43
2023/01/22 07:12:30;;;;;;;6.50;4.30;;;3.40;99.90;;;;;;4972630;29;20439;-45
2023/01/22 07:14:56;;;;;;;6.27;3.90;;;3.50;99.90;;;;;;4975321;28;20467;-45
2023/01/22 07:17:23;;;;;;;7.73;4.67;;;3.50;99.90;;;;;;4977318;29;20909;-44
2023/01/22 07:19:50;;;;;;;10.00;5.20;;;3.50;99.90;;;;;;4982045;29;20521;-45
2023/01/22 07:22:17;;;;;;;8.90;5.10;;;3.50;99.90;;;;;;4981757;28;20455;-45
2023/01/22 07:24:44;;;;;;;15.10;6.63;;;3.50;99.90;;;;;;4981791;29;20478;-46
2023/01/22 07:27:11;;;;;;;6.60;5.07;;;3.60;99.90;;;;;;4981973;29;20451;-46
2023/01/22 07:29:39;;;;;;;3.57;3.27;;;3.60;99.90;;;;;;4981620;28;20456;-48
2023/01/22 07:32:06;;;;;;;6.87;4.10;;;3.60;99.90;;;;;;4981655;29;20479;-46
2023/01/22 07:34:33;;;;;;;6.47;4.00;;;3.60;99.90;;;;;;4982005;29;20554;-46
2023/01/22 07:37:00;;;;;;;4.80;3.93;;;3.60;99.90;;;;;;4980729;29;20492;-44
2023/01/22 07:39:27;;;;;;;6.70;4.30;;;3.60;99.90;;;;;;4981730;29;20532;-47
2023/01/22 07:41:54;;;;;;;6.53;3.93;;;3.60;99.90;;;;;;4981092;29;20466;-42
2023/01/22 07:44:21;;;;;;;5.50;3.70;;;3.60;99.90;;;;;;4980756;28;20448;-44
2023/01/22 07:46:49;;;;;;;6.30;4.70;;;3.60;99.90;;;;;;4980995;28;20444;-45
2023/01/22 07:49:17;;;;;;;5.53;4.87;;;3.60;99.90;;;;;;4981124;29;20482;-48
2023/01/22 07:51:44;;;;;;;4.93;3.83;;;3.60;99.90;;;;;;4980765;29;20443;-46
2023/01/22 07:54:11;;;;;;;5.20;3.87;;;3.60;99.90;;;;;;4981173;29;20560;-47
2023/01/22 07:56:38;;;;;;;7.90;4.27;;;3.60;99.90;;;;;;4980704;29;20448;-45
2023/01/22 07:59:07;;;;;;;7.00;4.73;;;3.60;99.90;;;;;;4980837;29;20503;-45
2023/01/22 08:01:33;;;;;;;8.60;4.73;;;3.60;99.90;;;;;;4981174;29;20442;-46
2023/01/22 08:04:02;;;;;;;10.80;5.40;;;3.60;99.90;;;;;;4981367;29;20515;-47
2023/01/22 08:06:29;;;;;;;5.63;3.90;;;3.60;99.90;;;;;;4981199;29;20491;-46
2023/01/22 08:08:57;;;;;;;7.33;5.00;;;3.70;99.90;;;;;;4981188;29;20448;-48
2023/01/22 08:11:24;;;;;;;4.43;3.77;;;3.70;99.90;;;;;;4981063;29;20499;-44
2023/01/22 08:13:51;;;;;;;4.60;4.17;;;3.70;99.90;;;;;;4980986;29;20468;-47
2023/01/22 08:16:19;;;;;;;5.30;4.00;;;3.70;99.90;;;;;;4980924;29;20483;-44
2023/01/22 08:18:46;;;;;;;4.67;3.27;;;3.70;99.90;;;;;;4981158;28;20456;-43
2023/01/22 08:21:14;;;;;;;7.60;3.90;;;3.80;99.90;;;;;;4980883;29;20471;-42
2023/01/22 08:23:41;;;;;;;4.20;3.20;;;3.70;99.90;;;;;;4981151;29;20499;-49
2023/01/22 08:26:07;;;;;;;5.93;4.00;;;3.80;99.90;;;;;;4981085;28;20456;-43
2023/01/22 08:28:34;;;;;;;4.80;3.07;;;3.80;99.90;;;;;;4981201;29;20439;-44
2023/01/22 08:31:03;;;;;;;3.87;3.40;;;3.90;99.90;;;;;;4980954;29;20456;-45
2023/01/22 08:33:32;;;;;;;5.27;3.23;;;3.90;99.90;;;;;;4981217;28;20519;-44
2023/01/22 08:35:59;;;;;;;5.70;3.73;;;3.90;99.90;;;;;;4981048;29;20448;-44
2023/01/22 08:38:27;;;;;;;5.63;3.60;;;3.90;99.90;;;;;;4980728;29;20499;-42
2023/01/22 08:40:54;;;;;;;6.40;4.37;;;3.80;99.90;;;;;;4980654;29;20432;-45
2023/01/22 08:43:21;;;;;;;9.37;5.10;;;3.90;99.90;;;;;;4980608;29;20515;-45
2023/01/22 08:45:49;;;;;;;10.80;5.53;;;3.90;99.90;;;;;;4980510;29;20428;-42
2023/01/22 08:48:16;;;;;;;7.27;4.90;;;3.80;99.90;;;;;;4980734;29;20451;-45
2023/01/22 08:50:43;;;;;;;6.80;4.20;;;3.80;99.90;;;;;;4980326;29;20475;-47
2023/01/22 08:53:09;;;;;;;5.77;4.60;;;3.80;99.90;;;;;;4980148;29;20479;-50
2023/01/22 08:55:38;;;;;;;5.10;3.90;;;3.80;99.90;;;;;;4979641;28;20499;-47
2023/01/22 08:58:05;;;;;;;7.20;4.60;;;4.20;99.90;;;;;;4980207;29;20463;-49
2023/01/22 09:00:31;;;;;;;7.10;4.43;;;4.50;99.90;;;;;;4979809;29;20459;-45
2023/01/22 09:02:59;;;;;;;8.37;4.93;;;4.30;99.90;;;;;;4979901;29;20492;-46
2023/01/22 09:05:26;;;;;;;4.83;3.50;;;4.20;99.90;;;;;;4979397;29;20456;-46
2023/01/22 09:07:53;;;;;;;8.67;4.53;;;4.10;99.90;;;;;;4972091;29;20498;-47
2023/01/22 09:10:20;;;;;;;4.17;3.27;;;4.10;99.90;;;;;;4979616;29;20447;-43
2023/01/22 09:12:48;;;;;;;5.97;4.00;;;4.00;99.90;;;;;;4980090;28;20463;-46
2023/01/22 09:15:15;;;;;;;5.13;4.47;;;3.90;99.90;;;;;;4979738;29;20471;-41
2023/01/22 09:17:42;;;;;;;7.50;3.87;;;3.90;99.90;;;;;;4979565;29;21310;-48
2023/01/22 09:20:10;;;;;;;5.57;4.70;;;3.80;99.90;;;;;;4979610;29;20444;-50
2023/01/22 09:22:37;;;;;;;6.10;4.70;;;3.90;99.90;;;;;;4979893;29;20484;-47
2023/01/22 09:25:04;;;;;;;6.63;4.53;;;3.90;99.90;;;;;;4979368;29;20471;-50
2023/01/22 09:27:31;;;;;;;6.97;4.70;;;3.90;99.90;;;;;;4979583;29;20452;-46
2023/01/22 09:30:00;;;;;;;5.17;3.80;;;3.90;99.90;;;;;;4969233;29;20459;-43
2023/01/22 09:32:27;;;;;;;7.53;4.37;;;3.90;99.90;;;;;;4978878;29;20447;-49
2023/01/22 09:34:54;;;;;;;7.03;5.00;;;3.90;99.90;;;;;;4979098;29;20519;-45
2023/01/22 09:37:20;;;;;;;8.40;5.00;;;3.90;99.90;;;;;;4979012;29;20496;-49
2023/01/22 09:39:49;;;;;;;12.40;7.07;;;3.90;99.90;;;;;;4978914;29;20917;-47
2023/01/22 09:42:21;;;;;;;10.50;7.30;;;3.90;99.90;;;;;;4979108;29;20451;-46
2023/01/22 09:44:53;;;;;;;10.47;4.90;;;3.90;99.90;;;;;;4978968;29;20420;-48
2023/01/22 09:47:31;;;;;;;6.90;5.50;;;4.00;99.90;;;;;;4978807;29;20523;-46
2023/01/22 09:50:07;;;;;;;12.30;5.93;;;4.00;99.90;;;;;;4978850;29;20419;-45
2023/01/22 09:52:38;;;;;;;8.90;6.20;;;4.00;99.90;;;;;;4978910;29;20507;-49
2023/01/22 09:55:11;;;;;;;8.80;5.33;;;4.00;99.90;;;;;;4979046;29;20472;-46
2023/01/22 09:57:43;;;;;;;8.20;5.57;;;4.00;99.90;;;;;;4978424;29;20502;-50
2023/01/22 10:00:16;;;;;;;7.73;4.67;;;4.00;99.90;;;;;;4978758;29;20459;-42
2023/01/22 10:02:48;;;;;;;6.53;4.90;;;4.00;99.90;;;;;;4978209;29;20466;-50
2023/01/22 10:05:23;;;;;;;10.40;6.60;;;4.00;99.90;;;;;;4968640;29;20432;-46
2023/01/22 10:07:57;;;;;;;8.03;4.93;;;4.00;99.90;;;;;;4978701;28;20492;-47
2023/01/22 10:10:26;;;;;;;6.30;4.80;;;4.00;99.90;;;;;;4979223;29;20424;-51
2023/01/22 10:12:57;;;;;;;7.07;5.30;;;4.10;99.90;;;;;;4978872;29;20458;-41
2023/01/22 10:15:25;;;;;;;7.47;4.80;;;4.10;99.90;;;;;;4978365;29;20452;-46
2023/01/22 10:17:56;;;;;;;8.93;5.60;;;4.00;99.90;;;;;;4979202;29;20466;-46
2023/01/22 10:20:24;;;;;;;7.10;5.20;;;4.10;99.90;;;;;;4979230;29;20467;-43
2023/01/22 10:22:54;;;;;;;11.33;4.97;;;4.10;99.90;;;;;;4979230;29;20436;-47
2023/01/22 10:25:22;;;;;;;6.40;4.40;;;4.10;99.90;;;;;;4978237;29;20479;-44
2023/01/22 10:27:57;;;;;;;6.73;4.90;;;4.10;99.90;;;;;;4965953;29;20424;-46
2023/01/22 10:30:26;;;;;;;8.90;5.50;;;4.10;99.90;;;;;;4978339;29;20483;-42
2023/01/22 10:33:02;;;;;;;9.17;4.77;;;4.10;99.90;;;;;;4979085;29;20503;-48
2023/01/22 10:35:30;;;;;;;9.00;5.50;;;4.10;99.90;;;;;;4978688;29;20487;-45
2023/01/22 10:37:59;;;;;;;8.40;4.57;;;4.10;99.90;;;;;;4978190;29;20462;-47
2023/01/22 10:40:29;;;;;;;7.30;4.67;;;4.10;99.90;;;;;;4978353;29;20467;-46
2023/01/22 10:43:10;;;;;;;7.07;4.60;;;4.10;99.90;;;;;;4977952;29;20909;-44
2023/01/22 10:45:37;;;;;;;7.50;4.73;;;4.10;99.90;;;;;;4977891;29;20520;-43
2023/01/22 10:48:17;;;;;;;10.93;5.23;;;4.10;99.90;;;;;;4978525;29;20460;-41
2023/01/22 10:50:45;;;;;;;4.83;3.80;;;4.10;99.90;;;;;;4966403;29;20841;-45
2023/01/22 10:53:22;;;;;;;9.27;4.30;;;4.20;99.90;;;;;;4977191;29;20476;-46
2023/01/22 10:55:58;;;;;;;11.10;5.63;;;4.20;99.90;;;;;;4978378;29;20511;-44
2023/01/22 10:58:30;;;;;;;8.63;5.60;;;4.20;99.90;;;;;;4978519;29;20467;-42
2023/01/22 11:01:01;;;;;;;13.00;4.83;;;4.20;99.90;;;;;;4978406;29;20487;-43
2023/01/22 11:03:37;;;;;;;7.90;5.87;;;4.20;99.90;;;;;;4978514;29;20488;-45
2023/01/22 11:06:18;;;;;;;8.30;5.57;;;4.20;99.90;;;;;;4978789;29;20427;-43
2023/01/22 11:08:50;;;;;;;11.33;5.63;;;4.20;99.90;;;;;;4978198;29;20490;-43
2023/01/22 11:11:23;;;;;;;8.10;4.70;;;4.30;99.90;;;;;;4978001;29;20444;-43
2023/01/22 11:13:54;;;;;;;8.83;5.70;;;4.30;99.90;;;;;;4977860;29;20464;-46
2023/01/22 11:16:23;;;;;;;8.03;5.67;;;4.40;99.90;;;;;;4977764;28;20416;-42
2023/01/22 11:18:57;;;;;;;6.00;4.30;;;4.40;99.90;;;;;;4979302;28;20467;-47
2023/01/22 11:21:29;;;;;;;7.53;4.90;;;4.40;99.90;;;;;;4981757;29;20431;-47
2023/01/22 11:24:02;;;;;;;10.00;5.80;;;4.30;99.90;;;;;;4981082;29;20554;-43
2023/01/22 11:26:44;;;;;;;9.30;5.00;;;4.30;99.90;;;;;;4981297;29;20463;-44
2023/01/22 11:29:24;;;;;;;9.87;4.93;;;4.30;99.90;;;;;;4981509;29;20455;-46
2023/01/22 11:32:08;;;;;;;9.03;5.17;;;4.30;99.90;;;;;;4981425;28;20436;-46
2023/01/22 11:34:47;;;;;;;9.33;5.67;;;4.30;99.90;;;;;;4981279;29;20467;-48
2023/01/22 11:37:17;;;;;;;9.77;6.67;;;4.30;99.90;;;;;;4968663;29;20514;-44
2023/01/22 11:39:56;;;;;;;9.40;5.73;;;4.30;99.90;;;;;;4980904;29;20507;-47
2023/01/22 11:42:34;;;;;;;9.20;5.67;;;4.40;99.90;;;;;;4981097;29;20424;-43
2023/01/22 11:45:23;;;;;;;7.80;4.43;;;4.30;99.90;;;;;;4980860;29;20491;-42
2023/01/22 11:48:08;;;;;;;6.57;4.40;;;4.30;99.90;;;;;;4981275;29;20417;-49
2023/01/22 11:50:42;;;;;;;10.30;5.33;;;4.30;99.90;;;;;;4981297;29;20424;-49
2023/01/22 11:53:25;;;;;;;7.93;5.20;;;4.30;99.90;;;;;;4981101;29;20428;-45
2023/01/22 11:56:05;;;;;;;8.00;4.90;;;4.30;99.90;;;;;;4980918;29;20448;-50
2023/01/22 11:58:39;;;;;;;11.13;6.60;;;4.30;99.90;;;;;;4980952;29;20408;-45
2023/01/22 12:01:25;;;;;;;12.63;5.30;;;4.30;99.90;;;;;;4979751;29;20439;-48
2023/01/22 12:04:18;;;;;;;6.83;4.50;;;4.30;99.90;;;;;;4980468;29;20471;-42
2023/01/22 12:07:03;;;;;;;6.03;4.60;;;4.30;99.90;;;;;;4980692;29;20413;-41
2023/01/22 12:09:39;;;;;;;7.93;5.50;;;4.40;99.90;;;;;;4980290;29;20479;-43
2023/01/22 12:12:23;;;;;;;9.87;6.07;;;4.40;99.90;;;;;;4980351;29;20667;-46
2023/01/22 12:15:00;;;;;;;7.50;6.00;;;4.40;99.90;;;;;;4980004;29;20511;-47
2023/01/22 12:17:40;;;;;;;11.83;5.97;;;4.40;99.90;;;;;;4969757;29;20427;-45
2023/01/22 12:20:36;;;;;;;10.43;5.77;;;4.40;99.90;;;;;;4979976;29;20412;-47
2023/01/22 12:23:08;;;;;;;8.53;5.27;;;4.50;99.90;;;;;;4980362;29;20499;-42
2023/01/22 12:25:40;;;;;;;6.10;4.90;;;4.40;99.90;;;;;;4980280;29;20463;-47
2023/01/22 12:28:15;;;;;;;7.60;5.43;;;4.40;99.90;;;;;;4979900;29;20419;-45
2023/01/22 12:30:50;;;;;;;9.37;5.80;;;4.40;99.90;;;;;;4978820;28;20416;-48
2023/01/22 12:33:23;;;;;;;7.87;4.97;;;4.40;99.90;;;;;;4980014;29;20471;-47
2023/01/22 12:35:52;;;;;;;10.17;6.37;;;4.40;99.90;;;;;;4980315;29;20432;-44
2023/01/22 12:38:41;;;;;;;8.07;5.70;;;4.40;99.90;;;;;;4980026;29;20467;-42
2023/01/22 12:41:46;;;;;;;9.07;6.13;;;4.40;99.90;;;;;;4980213;29;20432;-46
2023/01/22 12:44:25;;;;;;;9.77;5.07;;;4.40;99.90;;;;;;4962926;29;20472;-44
2023/01/22 12:47:05;;;;;;;11.40;5.60;;;4.40;99.90;;;;;;4979778;29;20428;-43
2023/01/22 12:49:32;;;;;;;11.27;6.37;;;4.40;99.90;;;;;;4979851;29;20412;-46
2023/01/22 12:51:59;;;;;;;9.13;5.10;;;4.40;99.90;;;;;;4979485;29;20980;-43
2023/01/22 12:54:32;;;;;;;11.70;7.07;;;4.30;99.90;;;;;;4979679;29;20455;-47
2023/01/22 12:57:12;;;;;;;9.93;5.70;;;4.30;99.90;;;;;;4979124;29;20436;-47
2023/01/22 12:59:44;;;;;;;8.00;5.90;;;4.30;99.90;;;;;;4978803;29;20444;-49
2023/01/22 13:02:37;;;;;;;8.80;5.67;;;4.30;99.90;;;;;;4979326;29;20447;-43
2023/01/22 13:05:20;;;;;;;8.73;5.87;;;4.30;99.90;;;;;;4979046;29;20487;-42
2023/01/22 13:07:48;;;;;;;12.80;7.57;;;4.20;99.90;;;;;;4978691;29;20428;-42
2023/01/22 13:10:30;;;;;;;7.90;5.47;;;4.30;99.90;;;;;;4979351;29;20536;-42
2023/01/22 13:13:01;;;;;;;9.10;5.27;;;4.20;99.90;;;;;;4978903;29;20467;-45
2023/01/22 13:15:30;;;;;;;11.57;6.77;;;4.20;99.90;;;;;;4979068;29;20424;-43